Alar, China
Current Conditions -  °F | °C
As of 2:00 AM on Friday 31 Oct 2014 (Local Time) from ZWSH Reporting Station
Haze Haze  
Wind Chill: 38°   Ceiling: NA
Heat Index: 41°   Visibility: 2.6mi
Dew Point: 37°   Wind: 4mph
Humidity: 87%   Direction: 260°W
Pressure: 30.3"   Gusts: NA
Location:  40.5°N, 81.05°E
Report Text: ZWSH 301800Z AUTO 26002MPS 4200 BR 05/03 Q1026
Loading
Personal Weather Stations






























Interactive Weather Map
Tropical Storm Tracking
New forecast layout! Learn more

10-Day Weather Forecast

Advertisements
Track Severe Weather on mobile